Aalborg, Denmark

5:41 PM CEST on October 22, 2014 (GMT +0200)
Aalborg | Change Station
CLOSE
Current Station
Airport
Location: Aalborg,
Elevation: 3 m
Nearby Weather Stations

Elev 3 m 57.10 °N, 9.85 °E | Updated 21 minutes ago

Mostly Cloudy
Mostly Cloudy
12 °C
Feels Like 12 °C
N
20
Wind Variable Wind from East

Today
High -- | Low -- °C
--% Chance of Precip.
Yesterday
High -- | Low -- °C
Precip. -- mm
8:08 AM 6:00 PM
Waning Crescent, 2% visible
Pressure 1011 hPa
Visibility 10.0 kilometers
Clouds Few 304 m
Mostly Cloudy 487 m
Dew Point 10 °C
Humidity 88%
Rainfall 0.0 mm
Snow Depth Not available.
UV 0 out of 12
Pollen Not available.
Air Quality Not available.
Flu Activity Not available.
METAR EKYT 221520Z 10011KT 9999 FEW010 BKN016 12/10 Q1011

More Conditions Fewer Conditions

Pressure 1011 hPa
Visibility 10.0 kilometers
Clouds Few 304 m
Mostly Cloudy 487 m
Dew Point 10 °C
Humidity 88%
Rainfall 0.0 mm
Snow Depth Not available.
UV 0 out of 12
Pollen Not available.
Air Quality Not available.
Flu Activity Not available.
METAR EKYT 221520Z 10011KT 9999 FEW010 BKN016 12/10 Q1011

More Conditions Fewer Conditions

10-Day Weather Forecast

Almanac

Astronomy

Oct. 22, 2014 Rise Set
Actual Time 8:08 AM CEST 6:00 PM CEST
Civil Twilight 7:29 AM CEST 6:39 PM CEST
Nautical Twilight 6:44 AM CEST 7:24 PM CEST
Astronomical Twilight 6:00 AM CEST 8:08 PM CEST
Moon 6:16 AM CEST 5:30 PM CEST
Length of Visible Light 11h 10m
Length of Day
9h 51m
Tomorrow will be 4m 41s shorter.
Waning Crescent, 2% of the Moon is Illuminated
Today
Waning Crescent
Oct 23
New
Oct 30
First Quarter
Nov 6
Full
Nov 14
Last Quarter

Today's Extremes

Country Highs Country Lows

Community

WunderPhotos

Upload Photos

1,763,953 photos uploaded!

Nearby

Snow Depth

Not available.

Earthquake Activity

City Distance Mag. Time & Date
No recent earthquake activity has been reported nearby.
Minimum magnitude displayed is 2.5.

Coastal Water Temperatures

Place Temperature
No Stations Reporting

Nearby Weather Stations